This is the latest recevied weather packets stored in our database for station/object OK2KJT-11. If no packets are shown the sender has not sent any weather packets the latest 10 day(s).
| Time | Temp. | Humidity | Pressure | Rain* | Wind** | Luminosity | Snow |
|---|---|---|---|---|---|---|---|
| 1787594661 | 13.33° C | 61% | 1022 hPa | - | - | - | - |
| 1787594061 | 13.89° C | 58% | 1021.9 hPa | - | - | - | - |
| 1787593460 | 14.44° C | 56% | 1021.9 hPa | - | - | - | - |
| 1787592963 | 15° C | 54% | 1021.8 hPa | - | - | - | - |
| 1787592861 | 15° C | 54% | 1021.8 hPa | - | - | - | - |
| 1787592262 | 15.56° C | 53% | 1021.8 hPa | - | - | - | - |
| 1787591662 | 16.67° C | 50% | 1022 hPa | - | - | - | - |
| 1787591062 | 17.22° C | 49% | 1022 hPa | - | - | - | - |
| 1787590462 | 17.78° C | 46% | 1022 hPa | - | - | - | - |
| 1787589863 | 18.89° C | 42% | 1022.1 hPa | - | - | - | - |
| 1787589263 | 19.44° C | 41% | 1022 hPa | - | - | - | - |
| 1787588663 | 20° C | 40% | 1022.1 hPa | - | - | - | - |
| 1787588189 | 20.56° C | 39% | 1022.2 hPa | - | - | - | - |
| 1787588063 | 20.56° C | 39% | 1022.2 hPa | - | - | - | - |
| 1787587463 | 21.67° C | 37% | 1022.2 hPa | - | - | - | - |
| 1787586864 | 22.78° C | 35% | 1022.4 hPa | - | - | - | - |
| 1787586264 | 22.22° C | 34% | 1022.5 hPa | - | - | - | - |
| 1787585664 | 22.78° C | 32% | 1022.5 hPa | - | - | - | - |
| 1787585065 | 22.78° C | 33% | 1022.5 hPa | - | - | - | - |
| 1787584465 | 22.78° C | 33% | 1022.7 hPa | - | - | - | - |
| 1787583863 | 22.78° C | 33% | 1022.7 hPa | - | - | - | - |
| 1787583264 | 22.78° C | 34% | 1022.8 hPa | - | - | - | - |
| 1787582664 | 21.67° C | 37% | 1022.7 hPa | - | - | - | - |
| 1787582065 | 21.67° C | 36% | 1022.7 hPa | - | - | - | - |
| 1787581466 | 21.67° C | 36% | 1022.8 hPa | - | - | - | - |
* Rain since midnight (hover to see other rain measurements)
** Current wind speed in m/s (hover to see current wind gust speed)